North Chichester, New Hampshire
Current Conditions -  °F | °C
As of 4:16 AM on Wednesday 22 Oct 2014 (Local Time) from KCON Reporting Station
Overcast Overcast  
Wind Chill: 43°   Ceiling: 3200
Heat Index: 48°   Visibility: 10mi
Dew Point: 45°   Wind: 10mph
Humidity: 89%   Direction: 20°NNE
Pressure: 30.03"   Gusts: NA
Location:  43.2528°N, 71.4017°W
Report Text: KCON 220816Z AUTO 02009KT 10SM FEW015 SCT027 OVC032 09/07 A3003 RMK AO2 T00890072
Loading
Personal Weather Stations






























Interactive Weather Map
Tropical Storm Tracking
New forecast layout! Learn more

10-Day Weather Forecast

Advertisements
Track Severe Weather on mobile